Time;durP1;ratioP1;P1;durP2;ratioP2;P2;SDS_P1;SDS_P2;PMS_P1;PMS_P2;Temp;Humidity;BMP_temperature;BMP_pressure;BME280_temperature;BME280_humidity;BME280_pressure;Samples;Min_cycle;Max_cycle;Signal;HPM_P1;HPM_P2
2021/06/20 00:00:17;;;;;;;4.67;1.02;;;;;;;22.57;60.39;99704.46;1739313;82;21038;-62
2021/06/20 00:02:45;;;;;;;6.10;1.35;;;;;;;22.54;60.42;99696.03;1721693;82;21023;-64
2021/06/20 00:05:14;;;;;;;5.58;1.25;;;;;;;22.55;60.42;99700.44;1709865;82;21071;-62
2021/06/20 00:07:41;;;;;;;6.30;1.00;;;;;;;22.51;60.50;99705.06;1667965;84;21127;-63
2021/06/20 00:10:09;;;;;;;2.52;0.90;;;;;;;22.44;60.66;99704.28;1673615;86;21629;-64
2021/06/20 00:12:37;;;;;;;2.33;1.05;;;;;;;22.40;60.78;99699.20;1680536;84;21093;-65
2021/06/20 00:15:08;;;;;;;5.40;1.10;;;;;;;22.36;60.97;99699.67;1676608;85;21586;-61
2021/06/20 00:17:34;;;;;;;6.53;1.32;;;;;;;22.36;60.92;99697.48;1662625;86;21061;-64
2021/06/20 00:20:01;;;;;;;4.75;1.20;;;;;;;22.36;60.94;99696.09;1647794;86;21098;-65
2021/06/20 00:22:27;;;;;;;5.83;1.20;;;;;;;22.30;61.05;99703.86;1668459;85;21077;-65
2021/06/20 00:24:53;;;;;;;5.47;1.47;;;;;;;22.23;61.25;99703.07;1675980;85;21114;-64
2021/06/20 00:27:20;;;;;;;2.98;1.05;;;;;;;22.19;61.42;99702.72;1676801;85;21130;-65
2021/06/20 00:29:47;;;;;;;8.38;1.40;;;;;;;22.17;61.47;99714.75;1676650;85;21033;-64
2021/06/20 00:32:13;;;;;;;6.45;1.32;;;;;;;22.18;61.49;99706.64;1676393;85;21053;-64
2021/06/20 00:34:41;;;;;;;5.28;1.20;;;;;;;22.14;61.56;99713.47;1676667;85;21055;-64
2021/06/20 00:37:07;;;;;;;7.70;1.25;;;;;;;22.06;61.82;99718.58;1695886;84;21006;-64
2021/06/20 00:39:34;;;;;;;3.37;1.00;;;;;;;22.00;62.01;99724.71;1698503;84;21038;-64
2021/06/20 00:42:01;;;;;;;5.50;1.30;;;;;;;21.96;62.19;99725.17;1690971;84;21430;-62
2021/06/20 00:44:27;;;;;;;3.47;1.10;;;;;;;21.97;62.19;99728.16;1641684;86;21037;-65
2021/06/20 00:46:54;;;;;;;2.70;1.10;;;;;;;21.94;62.29;99735.78;1676868;84;21022;-64
2021/06/20 00:49:20;;;;;;;4.22;1.22;;;;;;;21.88;62.50;99732.98;1703059;84;22015;-65
2021/06/20 00:51:47;;;;;;;6.50;1.45;;;;;;;21.82;62.69;99731.04;1704725;84;21046;-65
2021/06/20 00:54:13;;;;;;;6.97;1.40;;;;;;;21.82;62.70;99735.98;1704629;84;21560;-65
2021/06/20 00:56:39;;;;;;;7.50;1.40;;;;;;;21.84;62.78;99733.69;1693149;84;21070;-63
2021/06/20 00:59:06;;;;;;;5.03;1.75;;;;;;;21.81;62.84;99739.11;1676462;85;21116;-63
2021/06/20 01:01:34;;;;;;;5.12;1.40;;;;;;;21.75;63.02;99740.50;1676540;85;21066;-66
2021/06/20 01:04:00;;;;;;;3.10;1.12;;;;;;;21.70;63.18;99733.22;1676829;85;21104;-65
2021/06/20 01:06:28;;;;;;;7.60;1.42;;;;;;;21.69;63.23;99742.67;1678516;84;21651;-65
2021/06/20 01:08:55;;;;;;;6.60;1.22;;;;;;;21.71;63.25;99740.96;1666085;84;21085;-66
2021/06/20 01:11:22;;;;;;;2.83;1.30;;;;;;;21.67;63.38;99745.57;1733672;82;21596;-63
2021/06/20 01:13:48;;;;;;;7.33;1.30;;;;;;;21.60;63.56;99748.10;1718318;82;21051;-63
2021/06/20 01:16:15;;;;;;;3.33;1.15;;;;;;;21.57;63.75;99752.95;1721597;82;21585;-63
2021/06/20 01:18:41;;;;;;;6.17;1.20;;;;;;;21.56;63.88;99747.17;1663763;86;21079;-63
2021/06/20 01:21:08;;;;;;;7.25;1.10;;;;;;;21.58;63.90;99747.63;1709500;84;21212;-64
2021/06/20 01:23:35;;;;;;;5.97;1.40;;;;;;;21.56;63.89;99740.25;1709788;84;21530;-62
2021/06/20 01:26:01;;;;;;;3.80;1.32;;;;;;;21.53;64.01;99741.75;1711601;82;21036;-66
2021/06/20 01:28:29;;;;;;;8.18;1.10;;;;;;;21.51;64.10;99742.66;1663879;86;21038;-63
2021/06/20 01:30:58;;;;;;;4.62;1.17;;;;;;;21.53;64.08;99743.70;1709669;84;21055;-65
2021/06/20 01:33:26;;;;;;;8.03;1.30;;;;;;;21.57;63.97;99740.48;1709815;84;20995;-64
2021/06/20 01:35:55;;;;;;;5.17;1.40;;;;;;;21.52;64.07;99743.47;1639302;86;21095;-66
2021/06/20 01:38:21;;;;;;;2.70;1.12;;;;;;;21.49;64.12;99742.77;1674458;85;21421;-66
2021/06/20 01:40:48;;;;;;;3.25;1.10;;;;;;;21.48;64.13;99739.19;1671167;86;21126;-62
2021/06/20 01:43:14;;;;;;;4.20;1.12;;;;;;;21.52;63.96;99741.51;1675803;85;21006;-65
2021/06/20 01:45:42;;;;;;;5.15;1.17;;;;;;;21.53;63.91;99740.37;1673126;84;21534;-63
2021/06/20 01:48:08;;;;;;;5.65;1.65;;;;;;;21.50;63.95;99743.02;1663875;86;21039;-64
2021/06/20 01:50:34;;;;;;;4.80;1.00;;;;;;;21.47;64.07;99748.64;1710047;84;21015;-65
2021/06/20 01:53:09;;;;;;;8.85;1.07;;;;;;;21.49;64.05;99749.13;1658227;86;21032;-65
2021/06/20 01:55:39;;;;;;;4.47;1.15;;;;;;;21.56;63.83;99741.63;1709838;84;21094;-63
2021/06/20 01:58:06;;;;;;;4.47;1.10;;;;;;;21.57;63.86;99739.10;1709692;84;21051;-63
2021/06/20 02:00:34;;;;;;;8.08;1.50;;;;;;;21.51;63.93;99739.88;1709734;84;21099;-63
2021/06/20 02:03:08;;;;;;;5.22;1.20;;;;;;;21.50;64.00;99743.02;1710667;82;21047;-65
2021/06/20 02:05:35;;;;;;;5.22;1.15;;;;;;;21.52;63.93;99743.47;1711086;82;21094;-65
2021/06/20 02:08:02;;;;;;;5.53;1.40;;;;;;;21.56;63.74;99743.02;1731379;81;21012;-65
2021/06/20 02:10:29;;;;;;;3.45;1.20;;;;;;;21.53;63.92;99740.94;1739182;82;21043;-63
2021/06/20 02:12:55;;;;;;;4.33;1.22;;;;;;;21.50;64.01;99736.91;1723852;82;21586;-65
2021/06/20 02:15:23;;;;;;;5.33;1.15;;;;;;;21.52;64.03;99736.54;1663770;86;21147;-64
2021/06/20 02:17:50;;;;;;;4.28;1.20;;;;;;;21.55;63.84;99733.89;1709562;84;21008;-64
2021/06/20 02:23:09;;;;;;;3.27;1.10;;;;;;;21.56;63.95;99727.78;1818639;79;24101;-64
2021/06/20 02:25:36;;;;;;;4.05;1.22;;;;;;;21.50;64.05;99725.83;1779441;80;21093;-65
2021/06/20 02:28:03;;;;;;;2.95;1.37;;;;;;;21.56;63.71;99732.75;1763456;81;21066;-63
2021/06/20 02:30:30;;;;;;;4.80;1.12;;;;;;;21.60;63.50;99737.02;1758829;81;21038;-65
2021/06/20 02:32:57;;;;;;;6.20;1.40;;;;;;;21.58;63.46;99733.77;1736855;81;21002;-64
2021/06/20 02:35:23;;;;;;;3.55;1.30;;;;;;;21.57;63.70;99732.17;1733360;83;21580;-64
2021/06/20 02:37:50;;;;;;;5.42;1.35;;;;;;;21.58;63.37;99733.20;1733332;83;21042;-64
2021/06/20 02:40:17;;;;;;;4.28;1.17;;;;;;;21.65;63.16;99727.08;1733516;81;21145;-64
2021/06/20 02:42:44;;;;;;;2.42;1.27;;;;;;;21.63;63.04;99719.14;1735610;81;21011;-63
2021/06/20 02:45:12;;;;;;;5.72;1.00;;;;;;;21.64;62.83;99725.48;1733874;81;21042;-65
2021/06/20 02:47:38;;;;;;;4.67;1.40;;;;;;;21.64;62.80;99723.53;1733490;83;21026;-66
2021/06/20 02:50:06;;;;;;;3.90;1.00;;;;;;;21.68;62.67;99723.05;1735418;81;21062;-65
2021/06/20 02:52:32;;;;;;;3.55;1.20;;;;;;;21.74;62.56;99719.48;1763976;81;21022;-66
2021/06/20 02:55:00;;;;;;;6.67;1.45;;;;;;;21.73;62.54;99717.28;1763994;81;21031;-66
2021/06/20 02:57:30;;;;;;;4.92;1.37;;;;;;;21.73;62.71;99719.25;1764170;81;21069;-66
2021/06/20 02:59:58;;;;;;;6.47;1.40;;;;;;;21.73;62.87;99719.25;1763824;81;21058;-64
2021/06/20 03:02:25;;;;;;;5.33;1.45;;;;;;;21.78;62.73;99719.84;1761623;81;21034;-64
2021/06/20 03:04:52;;;;;;;4.20;1.45;;;;;;;21.86;62.84;99715.31;1763326;81;21037;-63
2021/06/20 03:07:18;;;;;;;8.15;1.70;;;;;;;21.88;63.01;99713.02;1763778;81;21082;-64
2021/06/20 03:09:45;;;;;;;7.28;1.35;;;;;;;21.96;62.94;99716.28;1755467;81;21011;-64
2021/06/20 03:12:12;;;;;;;4.97;1.12;;;;;;;22.08;62.75;99711.28;1733427;83;21133;-65
2021/06/20 03:14:39;;;;;;;6.28;1.50;;;;;;;22.22;62.24;99707.56;1700801;84;21023;-65
2021/06/20 03:17:06;;;;;;;3.92;1.40;;;;;;;22.42;62.12;99706.61;1695393;84;21495;-64
2021/06/20 03:19:33;;;;;;;5.35;1.70;;;;;;;22.62;61.48;99713.13;1695746;83;21125;-62
2021/06/20 03:22:03;;;;;;;7.62;2.08;;;;;;;22.78;61.13;99713.43;1697672;83;21090;-65
2021/06/20 03:24:31;;;;;;;3.17;1.50;;;;;;;22.91;60.53;99709.23;1646683;84;21012;-65
2021/06/20 03:26:57;;;;;;;3.58;1.45;;;;;;;23.00;60.24;99717.61;1672945;84;21501;-64
2021/06/20 03:29:25;;;;;;;5.62;1.40;;;;;;;23.07;60.16;99724.75;1681628;84;21051;-64
2021/06/20 03:31:52;;;;;;;3.55;1.75;;;;;;;23.13;60.18;99730.87;1698473;84;21614;-65
2021/06/20 03:34:19;;;;;;;4.45;1.60;;;;;;;23.22;59.98;99746.77;1698663;84;21532;-66
2021/06/20 03:36:46;;;;;;;4.78;1.30;;;;;;;23.25;60.00;99742.70;1698007;84;21592;-63
2021/06/20 03:39:13;;;;;;;3.85;1.40;;;;;;;23.34;59.48;99746.72;1679646;84;21095;-63
2021/06/20 03:41:40;;;;;;;3.55;1.45;;;;;;;23.32;59.32;99740.69;1701604;83;21105;-66
2021/06/20 03:44:07;;;;;;;6.85;1.80;;;;;;;23.26;59.45;99738.77;1727224;83;21038;-65
2021/06/20 03:46:34;;;;;;;4.15;1.55;;;;;;;23.17;59.72;99747.02;1727252;83;21141;-63
2021/06/20 03:49:01;;;;;;;6.55;1.85;;;;;;;23.04;60.18;99746.28;1727148;83;20990;-63
2021/06/20 03:51:28;;;;;;;4.08;2.05;;;;;;;22.89;60.77;99743.45;1724861;83;21587;-62
2021/06/20 03:53:54;;;;;;;8.13;1.80;;;;;;;22.70;61.38;99752.45;1709519;83;21428;-63
2021/06/20 03:56:20;;;;;;;4.35;1.50;;;;;;;22.58;61.94;99758.80;1698486;84;21528;-63
2021/06/20 03:58:47;;;;;;;5.62;1.82;;;;;;;22.54;62.21;99756.49;1698839;84;21022;-64
2021/06/20 04:01:14;;;;;;;4.33;1.40;;;;;;;22.51;62.39;99753.61;1704959;83;21105;-62
2021/06/20 04:03:41;;;;;;;6.83;1.55;;;;;;;22.42;62.92;99740.47;1698845;84;21026;-65
2021/06/20 04:06:08;;;;;;;4.53;1.50;;;;;;;22.31;63.25;99735.41;1698204;84;21023;-65
2021/06/20 04:08:36;;;;;;;6.65;1.42;;;;;;;22.25;63.71;99727.66;1698364;84;21517;-65
2021/06/20 04:11:02;;;;;;;3.30;1.37;;;;;;;22.20;63.95;99724.56;1703914;83;21022;-65
2021/06/20 04:13:28;;;;;;;7.00;1.40;;;;;;;22.13;64.00;99721.58;1711064;83;21097;-65
2021/06/20 04:15:55;;;;;;;8.55;1.52;;;;;;;22.07;64.55;99718.79;1698096;84;21094;-65
2021/06/20 04:18:22;;;;;;;4.80;1.45;;;;;;;22.02;64.36;99713.50;1697949;84;21589;-65
2021/06/20 04:20:48;;;;;;;4.35;1.65;;;;;;;21.98;64.42;99712.58;1685062;84;21018;-65
2021/06/20 04:23:16;;;;;;;3.62;1.22;;;;;;;22.01;64.43;99713.84;1684985;84;21034;-65
2021/06/20 04:25:42;;;;;;;4.87;1.67;;;;;;;22.04;64.11;99704.24;1692654;84;21126;-65
2021/06/20 04:28:09;;;;;;;4.95;1.65;;;;;;;21.98;64.21;99707.61;1708324;84;21574;-64
2021/06/20 04:30:35;;;;;;;4.12;1.60;;;;;;;21.91;63.96;99704.61;1689272;84;21051;-65
2021/06/20 04:33:03;;;;;;;6.12;1.35;;;;;;;21.85;63.92;99697.09;1680190;85;21083;-65
2021/06/20 04:35:30;;;;;;;4.92;1.40;;;;;;;21.86;64.34;99695.91;1679890;85;21119;-65
2021/06/20 04:37:57;;;;;;;5.75;1.42;;;;;;;21.84;64.35;99694.89;1680225;85;21091;-66
2021/06/20 04:40:24;;;;;;;3.65;1.57;;;;;;;21.76;64.88;99697.20;1702183;84;21031;-63
2021/06/20 04:42:56;;;;;;;7.80;1.65;;;;;;;21.68;65.21;99696.73;1708468;84;21087;-63
2021/06/20 04:45:19;;;;;;;4.90;1.55;;;;;;;21.70;65.88;99688.08;1708073;84;21079;-65
2021/06/20 04:47:46;;;;;;;5.08;1.80;;;;;;;21.71;65.61;99684.17;1708509;84;21086;-63
2021/06/20 04:50:13;;;;;;;5.55;1.77;;;;;;;21.69;65.81;99686.45;1705317;84;21091;-64
2021/06/20 04:52:41;;;;;;;4.45;1.70;;;;;;;21.62;65.94;99691.20;1708313;84;21019;-63
2021/06/20 04:55:10;;;;;;;4.33;1.42;;;;;;;21.63;66.31;99681.73;1708537;84;21031;-66
2021/06/20 04:57:36;;;;;;;5.22;1.70;;;;;;;21.67;66.11;99688.20;1708681;84;21087;-64
2021/06/20 05:00:06;;;;;;;4.10;1.77;;;;;;;21.68;65.79;99684.26;1706440;84;21039;-66
2021/06/20 05:02:33;;;;;;;5.58;1.60;;;;;;;21.66;65.79;99681.61;1698589;84;21558;-65
2021/06/20 05:04:59;;;;;;;3.25;1.27;;;;;;;21.67;65.69;99681.28;1684739;83;21035;-64
2021/06/20 05:07:26;;;;;;;4.80;1.37;;;;;;;21.74;65.25;99674.58;1680051;85;21042;-64
2021/06/20 05:09:52;;;;;;;4.83;1.35;;;;;;;21.80;65.47;99680.69;1697695;84;21087;-65
2021/06/20 05:12:19;;;;;;;6.00;1.40;;;;;;;21.81;65.47;99674.00;1688366;84;21028;-64
2021/06/20 05:14:46;;;;;;;3.80;1.27;;;;;;;21.79;65.29;99667.41;1708739;84;21534;-64
2021/06/20 05:17:14;;;;;;;6.85;1.82;;;;;;;21.81;65.11;99672.61;1708369;84;21071;-63
2021/06/20 05:19:40;;;;;;;5.50;1.70;;;;;;;21.83;64.42;99680.80;1706416;84;21024;-66
2021/06/20 05:22:09;;;;;;;2.58;1.30;;;;;;;21.76;64.45;99681.95;1711857;83;21074;-66
2021/06/20 05:24:37;;;;;;;5.90;1.30;;;;;;;21.73;64.49;99673.53;1727501;83;21006;-64
2021/06/20 05:27:04;;;;;;;3.27;1.20;;;;;;;21.72;64.74;99670.52;1727250;83;21545;-62
2021/06/20 05:29:33;;;;;;;5.30;1.60;;;;;;;21.73;64.84;99669.38;1703423;83;21113;-63
2021/06/20 05:31:59;;;;;;;3.33;1.30;;;;;;;21.71;65.06;99668.93;1698152;84;21145;-63
2021/06/20 05:34:27;;;;;;;2.80;1.30;;;;;;;21.73;65.07;99672.96;1698268;84;21073;-65
2021/06/20 05:36:53;;;;;;;4.65;1.30;;;;;;;21.83;64.30;99673.87;1672538;84;21053;-63
2021/06/20 05:39:20;;;;;;;4.95;1.35;;;;;;;21.94;64.36;99669.27;1699938;83;21648;-64
2021/06/20 05:41:46;;;;;;;5.67;1.47;;;;;;;22.01;64.13;99675.84;1698135;84;21054;-63
2021/06/20 05:44:13;;;;;;;4.25;1.32;;;;;;;22.13;64.14;99679.18;1702098;83;21585;-66
2021/06/20 05:46:41;;;;;;;5.30;1.22;;;;;;;22.34;63.15;99677.05;1678567;85;21179;-63
2021/06/20 05:49:09;;;;;;;3.92;1.30;;;;;;;22.40;62.86;99678.41;1678714;85;21102;-64
2021/06/20 05:51:36;;;;;;;3.67;1.00;;;;;;;22.41;62.47;99684.19;1678645;85;21560;-64
2021/06/20 05:54:02;;;;;;;5.03;1.20;;;;;;;22.39;62.20;99685.70;1681053;84;21584;-63
2021/06/20 05:56:29;;;;;;;5.95;1.30;;;;;;;22.44;62.15;99685.44;1707151;84;21105;-64
2021/06/20 05:58:57;;;;;;;6.20;1.50;;;;;;;22.50;61.61;99671.55;1696146;84;21061;-61
2021/06/20 06:01:23;;;;;;;3.60;1.20;;;;;;;22.52;61.50;99672.02;1685518;83;21054;-64
2021/06/20 06:03:49;;;;;;;6.12;1.85;;;;;;;22.50;61.12;99659.06;1678746;85;21580;-64
2021/06/20 06:06:16;;;;;;;3.58;1.10;;;;;;;22.61;61.00;99676.82;1682855;84;21086;-63
2021/06/20 06:08:44;;;;;;;4.55;1.10;;;;;;;22.69;60.95;99680.87;1702885;83;21066;-63
2021/06/20 06:11:10;;;;;;;5.10;1.42;;;;;;;22.93;60.64;99683.30;1701223;84;21038;-64
2021/06/20 06:13:37;;;;;;;5.62;1.50;;;;;;;23.13;59.98;99679.50;1699149;84;21073;-64
2021/06/20 06:16:04;;;;;;;3.42;1.50;;;;;;;23.30;59.41;99679.16;1655323;85;21678;-62
2021/06/20 06:18:30;;;;;;;2.85;1.32;;;;;;;23.41;59.43;99673.32;1681868;84;21073;-63
2021/06/20 06:20:57;;;;;;;7.10;1.20;;;;;;;23.50;59.17;99669.77;1682706;84;21101;-65
2021/06/20 06:23:23;;;;;;;5.30;1.32;;;;;;;23.55;58.93;99670.90;1707039;83;21687;-64
2021/06/20 06:25:50;;;;;;;5.50;1.40;;;;;;;23.59;58.79;99666.81;1725061;83;21073;-61
2021/06/20 06:28:16;;;;;;;4.92;1.05;;;;;;;23.62;58.61;99675.24;1727097;83;21537;-63
2021/06/20 06:30:43;;;;;;;3.05;1.42;;;;;;;23.65;58.45;99675.91;1727281;83;21101;-62
2021/06/20 06:33:09;;;;;;;2.42;1.17;;;;;;;23.77;58.59;99677.17;1727059;83;21086;-61
2021/06/20 06:35:36;;;;;;;3.92;1.15;;;;;;;23.92;58.02;99683.88;1703584;83;21623;-61
2021/06/20 06:38:03;;;;;;;2.95;0.90;;;;;;;24.00;57.81;99689.83;1698088;84;21576;-63
2021/06/20 06:40:30;;;;;;;3.08;1.22;;;;;;;24.14;57.22;99688.80;1698127;84;21065;-64
2021/06/20 06:42:57;;;;;;;2.87;1.07;;;;;;;24.28;57.06;99683.55;1698269;84;21045;-63
2021/06/20 06:45:25;;;;;;;3.92;1.35;;;;;;;24.47;56.37;99685.55;1721874;83;21587;-61
2021/06/20 06:47:51;;;;;;;6.58;1.22;;;;;;;24.63;55.87;99684.07;1727284;83;21018;-64
2021/06/20 06:50:19;;;;;;;2.58;1.20;;;;;;;24.74;55.62;99688.69;1725907;81;21547;-62
2021/06/20 06:52:46;;;;;;;2.62;1.12;;;;;;;24.79;54.47;99683.42;1714851;83;21089;-64
2021/06/20 06:55:13;;;;;;;4.90;1.22;;;;;;;24.75;53.45;99682.54;1699827;83;21067;-62
2021/06/20 06:57:40;;;;;;;2.45;0.90;;;;;;;24.66;53.19;99676.38;1698378;84;21074;-62
2021/06/20 07:00:08;;;;;;;3.98;1.30;;;;;;;24.54;53.00;99683.50;1698112;84;21102;-62
2021/06/20 07:02:34;;;;;;;5.42;1.17;;;;;;;24.37;53.46;99677.79;1695314;84;21082;-61
2021/06/20 07:05:01;;;;;;;3.80;1.37;;;;;;;24.25;54.16;99677.33;1698167;84;21142;-64
2021/06/20 07:07:28;;;;;;;4.00;1.10;;;;;;;24.17;53.96;99683.89;1668451;86;21085;-64
2021/06/20 07:09:59;;;;;;;5.30;1.07;;;;;;;24.12;54.40;99665.28;1698105;84;21070;-60
2021/06/20 07:12:25;;;;;;;2.30;1.02;;;;;;;24.18;54.42;99664.66;1698072;84;21066;-62
2021/06/20 07:14:51;;;;;;;2.55;1.00;;;;;;;24.42;55.18;99662.76;1718746;83;22548;-61
2021/06/20 07:17:17;;;;;;;3.55;1.15;;;;;;;24.78;53.67;99654.77;1721394;83;21461;-64
2021/06/20 07:19:48;;;;;;;3.42;1.10;;;;;;;25.15;53.46;99657.08;1713674;83;20940;-61
2021/06/20 07:22:20;;;;;;;3.05;1.12;;;;;;;25.46;52.74;99662.98;1713810;83;21501;-61
2021/06/20 07:24:50;;;;;;;4.17;0.80;;;;;;;25.76;51.29;99663.89;1719763;83;20991;-62
2021/06/20 07:27:23;;;;;;;3.98;0.70;;;;;;;26.08;49.99;99661.58;1720026;82;20983;-64
2021/06/20 07:29:50;;;;;;;8.98;1.25;;;;;;;26.08;49.99;99661.58;1725413;82;20978;-62
2021/06/20 07:32:16;;;;;;;4.03;1.27;;;;;;;26.19;49.45;99657.80;1750067;82;20948;-62
2021/06/20 07:34:43;;;;;;;4.85;1.10;;;;;;;26.26;49.12;99666.84;1720436;83;21027;-64
2021/06/20 07:37:09;;;;;;;6.08;0.93;;;;;;;26.33;48.88;99663.34;1720727;82;21554;-66
2021/06/20 07:39:36;;;;;;;3.98;1.10;;;;;;;26.55;48.76;99668.83;1720162;81;21082;-63
2021/06/20 07:42:03;;;;;;;3.17;1.05;;;;;;;26.72;47.56;99660.45;1737939;81;21027;-62
2021/06/20 07:44:30;;;;;;;5.62;0.98;;;;;;;26.82;47.56;99654.20;1729087;82;21023;-61
2021/06/20 07:46:57;;;;;;;7.47;1.00;;;;;;;26.94;46.36;99655.94;1746924;82;21071;-62
2021/06/20 07:49:24;;;;;;;4.17;0.90;;;;;;;27.05;45.58;99651.27;1720078;81;21051;-62
2021/06/20 07:51:50;;;;;;;2.90;0.70;;;;;;;27.12;45.07;99642.95;1735622;82;21514;-61
2021/06/20 07:54:16;;;;;;;3.65;0.75;;;;;;;27.19;44.02;99634.05;1734713;82;20995;-63
2021/06/20 07:56:43;;;;;;;3.85;0.68;;;;;;;27.33;43.90;99628.37;1736579;82;21530;-62
2021/06/20 07:59:09;;;;;;;3.15;0.75;;;;;;;27.43;43.44;99627.65;1734254;82;21038;-62
2021/06/20 08:01:37;;;;;;;4.20;0.80;;;;;;;27.42;43.08;99631.66;1733318;82;21628;-60
2021/06/20 08:04:04;;;;;;;4.25;0.90;;;;;;;27.20;42.47;99626.47;1728473;82;21035;-63
2021/06/20 08:06:31;;;;;;;3.65;1.32;;;;;;;26.89;43.12;99622.78;1723863;82;21038;-63
2021/06/20 08:08:57;;;;;;;3.20;0.80;;;;;;;26.58;44.12;99614.22;1749750;82;21546;-62
2021/06/20 08:11:24;;;;;;;5.62;1.37;;;;;;;26.34;44.04;99631.47;1735536;82;21063;-60
2021/06/20 08:13:51;;;;;;;4.55;0.80;;;;;;;26.12;44.28;99621.98;1720335;82;21047;-65
2021/06/20 08:16:18;;;;;;;2.83;0.93;;;;;;;25.90;44.55;99625.06;1720194;83;21075;-64
2021/06/20 08:18:45;;;;;;;4.67;1.02;;;;;;;25.63;45.33;99603.38;1720263;83;21086;-65
2021/06/20 08:21:11;;;;;;;7.05;0.93;;;;;;;25.57;45.84;99609.06;1661557;85;21107;-63
2021/06/20 08:23:38;;;;;;;5.70;1.07;;;;;;;25.47;46.35;99609.64;1716319;83;21036;-63
2021/06/20 08:26:05;;;;;;;4.80;1.00;;;;;;;25.47;46.96;99612.43;1727147;83;21607;-65
2021/06/20 08:28:32;;;;;;;23.75;14.43;;;;;;;25.45;46.64;99602.27;1727647;83;21081;-65
2021/06/20 08:30:59;;;;;;;5.37;1.50;;;;;;;25.44;47.72;99602.03;1709414;83;21097;-66
2021/06/20 08:33:26;;;;;;;4.83;1.17;;;;;;;25.62;47.47;99598.97;1686713;84;21034;-64
2021/06/20 08:35:53;;;;;;;3.10;0.70;;;;;;;25.90;46.21;99588.03;1698219;84;21062;-66
2021/06/20 08:38:19;;;;;;;4.75;1.00;;;;;;;26.16;46.60;99591.56;1700902;83;21569;-65
2021/06/20 08:40:46;;;;;;;3.42;0.78;;;;;;;26.44;46.01;99583.34;1727413;83;21109;-63
2021/06/20 08:43:13;;;;;;;4.55;1.17;;;;;;;26.67;46.88;99578.44;1727152;83;21554;-64
2021/06/20 08:45:39;;;;;;;2.10;1.00;;;;;;;26.86;46.06;99578.84;1727171;83;21066;-65
2021/06/20 08:48:11;;;;;;;3.67;0.95;;;;;;;27.02;45.30;99575.22;1727447;83;21058;-65
2021/06/20 08:50:37;;;;;;;6.20;1.10;;;;;;;27.10;45.78;99569.29;1725079;83;21081;-62
2021/06/20 08:53:04;;;;;;;3.20;0.90;;;;;;;27.20;45.40;99568.59;1727138;83;21057;-64
2021/06/20 08:55:30;;;;;;;4.58;1.17;;;;;;;27.31;44.77;99564.49;1677140;83;21121;-63
2021/06/20 08:58:00;;;;;;;8.60;1.15;;;;;;;27.35;44.65;99569.48;1719666;83;21001;-65
2021/06/20 09:00:25;;;;;;;13.25;7.58;;;;;;;27.43;45.69;99572.55;1646546;84;21565;-64
2021/06/20 09:02:59;;;;;;;12.53;5.62;;;;;;;27.59;45.04;99575.10;1698181;84;21046;-65
2021/06/20 09:05:26;;;;;;;5.03;0.80;;;;;;;27.82;43.79;99574.83;1698493;84;21599;-64
2021/06/20 09:07:52;;;;;;;4.58;1.10;;;;;;;28.01;42.25;99559.95;1674457;83;21093;-65
2021/06/20 09:10:28;;;;;;;2.60;0.80;;;;;;;28.14;41.98;99561.23;1717536;83;21130;-63
2021/06/20 09:12:57;;;;;;;3.27;0.90;;;;;;;28.24;41.82;99570.06;1698575;84;21046;-63
2021/06/20 09:15:28;;;;;;;6.28;1.25;;;;;;;28.32;40.32;99554.30;1698122;84;21106;-62
2021/06/20 09:17:57;;;;;;;8.58;3.20;;;;;;;28.36;40.17;99562.72;1680854;84;21083;-62
2021/06/20 09:20:44;;;;;;;7.97;3.47;;;;;;;28.47;39.48;99550.36;1699953;83;21102;-65
2021/06/20 09:23:16;;;;;;;5.72;1.57;;;;;;;28.58;39.03;99551.78;1696244;84;21150;-64
2021/06/20 09:25:47;;;;;;;8.70;1.47;;;;;;;28.61;38.71;99545.39;1675599;85;21645;-64
2021/06/20 09:28:14;;;;;;;7.78;3.02;;;;;;;28.72;38.89;99542.64;1686516;85;21098;-63
2021/06/20 09:30:52;;;;;;;18.48;11.75;;;;;;;28.84;38.54;99542.27;1697493;84;21398;-63
2021/06/20 09:33:20;;;;;;;12.78;8.75;;;;;;;29.01;37.28;99545.67;1717111;83;21050;-62
2021/06/20 09:35:51;;;;;;;5.35;1.30;;;;;;;29.14;36.68;99548.27;1704485;84;21075;-64
2021/06/20 09:38:24;;;;;;;4.35;1.80;;;;;;;29.22;36.16;99547.08;1717212;83;21045;-65
2021/06/20 09:41:05;;;;;;;4.58;0.82;;;;;;;29.28;36.33;99534.88;1699533;84;21581;-63
2021/06/20 09:43:33;;;;;;;5.58;1.92;;;;;;;29.25;35.96;99532.25;1704292;84;21541;-62
2021/06/20 09:46:00;;;;;;;5.28;0.85;;;;;;;29.21;37.32;99532.05;1704385;84;21066;-65
2021/06/20 09:48:34;;;;;;;6.42;1.60;;;;;;;29.33;36.71;99529.68;1699111;84;21053;-62
2021/06/20 09:51:22;;;;;;;8.18;3.08;;;;;;;29.33;37.18;99531.09;1675903;85;21122;-65
2021/06/20 09:53:50;;;;;;;5.45;2.10;;;;;;;29.38;36.66;99534.06;1676157;85;21609;-62
2021/06/20 09:56:24;;;;;;;4.95;0.62;;;;;;;29.50;35.84;99535.86;1688234;85;21122;-64
2021/06/20 09:59:04;;;;;;;3.67;0.82;;;;;;;29.60;35.65;99534.23;1677746;84;21070;-63
2021/06/20 10:01:35;;;;;;;9.50;0.70;;;;;;;29.64;34.39;99528.81;1688217;85;21102;-65
2021/06/20 10:04:02;;;;;;;7.20;0.60;;;;;;;29.71;33.50;99537.81;1676071;85;21222;-63
2021/06/20 10:06:28;;;;;;;4.72;0.82;;;;;;;29.72;33.82;99538.62;1688281;85;21041;-63
2021/06/20 10:08:57;;;;;;;3.25;0.62;;;;;;;29.79;33.93;99528.17;1697257;84;21039;-64
2021/06/20 10:11:24;;;;;;;7.50;0.78;;;;;;;29.79;33.08;99526.77;1716994;83;21710;-63
2021/06/20 10:13:50;;;;;;;1.95;0.60;;;;;;;29.75;33.14;99527.98;1704369;84;21125;-63
2021/06/20 10:16:30;;;;;;;4.85;0.50;;;;;;;29.71;33.67;99528.59;1717214;83;21545;-64
2021/06/20 10:19:07;;;;;;;8.33;1.42;;;;;;;29.74;33.91;99528.58;1702334;84;21094;-63
2021/06/20 10:21:37;;;;;;;7.30;0.70;;;;;;;29.77;32.68;99520.75;1716630;83;21075;-63
2021/06/20 10:24:18;;;;;;;13.85;7.78;;;;;;;29.79;33.45;99515.55;1698859;83;21435;-62
2021/06/20 10:27:09;;;;;;;34.65;24.18;;;;;;;29.88;34.01;99516.54;1683545;85;21059;-64
2021/06/20 10:29:35;;;;;;;7.45;4.33;;;;;;;30.01;34.55;99502.25;1718677;83;21110;-65
2021/06/20 10:32:17;;;;;;;5.03;1.35;;;;;;;30.15;34.50;99504.98;1720293;83;21019;-63
2021/06/20 10:34:58;;;;;;;9.88;2.72;;;;;;;30.26;33.32;99508.54;1719923;83;21542;-66
2021/06/20 10:37:34;;;;;;;10.15;6.90;;;;;;;30.34;33.87;99505.90;1722230;82;21451;-63
2021/06/20 10:40:01;;;;;;;;;;;;;;;30.50;33.06;99501.23;1721487;83;21028;-62
2021/06/20 10:42:38;;;;;;;7.50;1.55;;;;;;;30.52;33.02;99510.03;1720388;83;20133;-63
2021/06/20 10:45:09;;;;;;;4.53;1.00;;;;;;;30.51;33.29;99500.00;1722332;82;21035;-64
2021/06/20 10:47:41;;;;;;;3.60;0.60;;;;;;;30.54;33.09;99496.36;1750314;82;21495;-63
2021/06/20 10:50:16;;;;;;;3.08;0.90;;;;;;;30.61;33.13;99493.51;1749849;82;21051;-64
2021/06/20 10:52:57;;;;;;;8.30;1.10;;;;;;;30.72;32.04;99499.85;1750292;82;21026;-65
2021/06/20 10:55:24;;;;;;;6.10;1.30;;;;;;;30.79;32.71;99490.56;1749243;82;21023;-63
2021/06/20 10:57:53;;;;;;;4.83;0.82;;;;;;;30.81;31.79;99497.39;1749404;82;20953;-62
2021/06/20 11:00:33;;;;;;;5.92;0.82;;;;;;;30.78;31.56;99483.37;1749647;82;21055;-63
2021/06/20 11:03:15;;;;;;;4.25;0.82;;;;;;;30.82;30.34;99488.36;1750236;82;21451;-63
2021/06/20 11:09:15;;;;;;;5.03;1.05;;;;;;;30.88;30.57;99472.64;1801403;79;23063;-65
2021/06/20 11:12:01;;;;;;;5.83;1.42;;;;;;;30.84;30.68;99483.11;1753731;80;21047;-62
2021/06/20 11:14:25;;;;;;;8.90;0.78;;;;;;;30.85;30.13;99474.28;1752237;82;21015;-61
2021/06/20 11:16:51;;;;;;;4.65;0.70;;;;;;;30.79;28.47;99485.75;1750832;82;21585;-62
2021/06/20 11:19:28;;;;;;;7.00;0.62;;;;;;;30.76;28.63;99476.74;1752559;82;21070;-61
2021/06/20 11:22:04;;;;;;;7.85;1.07;;;;;;;30.78;29.15;99479.16;1752900;82;21007;-60
2021/06/20 11:24:46;;;;;;;6.78;0.78;;;;;;;30.80;28.06;99473.91;1736816;82;21022;-62
2021/06/20 11:27:21;;;;;;;7.60;2.10;;;;;;;30.76;28.84;99480.16;1723116;83;21082;-61
2021/06/20 11:29:56;;;;;;;8.53;1.40;;;;;;;30.78;29.62;99479.95;1679126;85;21078;-62
2021/06/20 11:32:29;;;;;;;2.17;0.57;;;;;;;30.90;29.55;99473.81;1683553;85;21093;-64
2021/06/20 11:35:06;;;;;;;5.47;0.90;;;;;;;30.94;29.16;99473.78;1676917;85;21075;-61
2021/06/20 11:37:44;;;;;;;5.12;1.12;;;;;;;31.02;29.74;99474.76;1683977;85;21057;-65
2021/06/20 11:40:20;;;;;;;6.12;1.25;;;;;;;31.06;28.00;99482.55;1684134;85;21094;-63
2021/06/20 11:42:51;;;;;;;4.25;1.10;;;;;;;30.97;27.78;99468.16;1684534;84;21115;-63
2021/06/20 11:45:20;;;;;;;5.90;0.60;;;;;;;30.88;27.75;99476.25;1690980;84;21046;-63